Home > Products > Valid Products > MTR

000
SAUS45 KMSO 012054
MTRP69
METAR KP69 012052Z AUTO 19003KT 04/03 A3020 RMK AO1 SLP239 P0004
60011 T00440028 50000





000
SAUS45 KMSO 011954
MTRP69
METAR KP69 011952Z AUTO 00000KT 05/03 A3020 RMK AO1 SLP241 P0004
T00500028





000
SAUS45 KMSO 011854
MTRP69
METAR KP69 011852Z AUTO VRB03KT 05/02 A3021 RMK AO1 SLP243 P0003
T00500017





000
SAUS45 KMSO 011754
MTRP69
METAR KP69 011752Z AUTO 34003KT 07/03 A3020 RMK AO1 SLP236 60010
T00670028 10067 20039 50002





000
SAUS45 KMSO 011754
MTRP69
METAR KP69 011752Z AUTO 34003KT 07/03 A3020 RMK AO1 SLP236 60010
T00670028 10067 20039 50002





000
SAUS45 KMSO 011654
MTRP69
METAR KP69 011652Z AUTO 00000KT 06/03 A3021 RMK AO1 SLP241 P0001
T00560028





000
SAUS45 KMSO 011654
MTRP69
METAR KP69 011652Z AUTO 00000KT 06/03 A3021 RMK AO1 SLP241 P0001
T00560028





000
SAUS45 KMSO 011553
MTRP69
METAR KP69 011552Z AUTO 00000KT 05/03 A3020 RMK AO1 SLP239 P0002
T00500033





000
SAUS45 KMSO 011553
MTRP69
METAR KP69 011552Z AUTO 00000KT 05/03 A3020 RMK AO1 SLP239 P0002
T00500033





000
SAUS45 KMSO 011453
MTRP69
METAR KP69 011452Z AUTO 00000KT 04/03 A3019 RMK AO1 SLP237 P0002
60007 T00440033 53013





000
SAUS45 KMSO 011453
MTRP69
METAR KP69 011452Z AUTO 00000KT 04/03 A3019 RMK AO1 SLP237 P0002
60007 T00440033 53013





000
SAUS45 KMSO 011354
MTRP69
METAR KP69 011352Z AUTO VRB03KT 04/03 A3018 RMK AO1 SLP231 P0001
T00390033





000
SAUS45 KMSO 011354
MTRP69
METAR KP69 011352Z AUTO VRB03KT 04/03 A3018 RMK AO1 SLP231 P0001
T00390033





000
SAUS45 KMSO 011253
MTRP69
METAR KP69 011252Z AUTO 00000KT 04/03 A3016 RMK AO1 SLP224 P0004
T00390028





000
SAUS45 KMSO 011253
MTRP69
METAR KP69 011252Z AUTO 00000KT 04/03 A3016 RMK AO1 SLP224 P0004
T00390028





000
SAUS45 KMSO 011153
MTRP69
METAR KP69 011152Z AUTO 00000KT 04/03 A3015 RMK AO1 SLP221 P0003
60008 70073 T00440033 10050 20044 53012





000
SAUS45 KMSO 011153
MTRP69
METAR KP69 011152Z AUTO 00000KT 04/03 A3015 RMK AO1 SLP221 P0003
60008 70073 T00440033 10050 20044 53012





000
SAUS45 KMSO 011053
MTRP69
METAR KP69 011052Z AUTO 00000KT 04/04 A3014 RMK AO1 SLP215 P0003
T00440039





000
SAUS45 KMSO 011053
MTRP69
METAR KP69 011052Z AUTO 00000KT 04/04 A3014 RMK AO1 SLP215 P0003
T00440039





000
SAUS45 KMSO 010954
MTRP69
METAR KP69 010952Z AUTO 00000KT 05/04 A3012 RMK AO1 SLP211 P0001
T00500039





000
SAUS45 KMSO 010853
MTRP69
METAR KP69 010852Z AUTO 00000KT 05/04 A3012 RMK AO1 SLP206 60001
T00500039 53017





000
SAUS45 KMSO 010754
MTRP69
METAR KP69 010752Z AUTO 00000KT 05/04 A3009 RMK AO1 SLP195 P0001
T00500039 401390050





000
SAUS45 KMSO 010654
MTRP69
METAR KP69 010652Z AUTO 00000KT 05/04 A3008 RMK AO1 SLP191 T00500039





000
SAUS45 KMSO 010654
MTRP69
METAR KP69 010652Z AUTO 00000KT 05/04 A3008 RMK AO1 SLP191 T00500039





000
SAUS45 KMSO 010554
MTRP69
METAR KP69 010552Z AUTO 00000KT 05/04 A3006 RMK AO1 SLP186 P0002
60015 T00500044 10078 20050 53007





000
SAUS45 KMSO 010554
MTRP69
METAR KP69 010552Z AUTO 00000KT 05/04 A3006 RMK AO1 SLP186 P0002
60015 T00500044 10078 20050 53007





000
SAUS45 KMSO 010453
MTRP69
METAR KP69 010452Z AUTO 00000KT 06/04 A3004 RMK AO1 SLP179 T00560044





000
SAUS45 KMSO 010453
MTRP69
METAR KP69 010452Z AUTO 00000KT 06/04 A3004 RMK AO1 SLP179 T00560044





000
SAUS45 KMSO 010354
MTRP69
METAR KP69 010352Z AUTO 00000KT 05/04 A3005 RMK AO1 SLP184 T00500044





000
SAUS45 KMSO 010354
MTRP69
METAR KP69 010352Z AUTO 00000KT 05/04 A3005 RMK AO1 SLP184 T00500044





000
SAUS45 KMSO 010254
MTRP69
METAR KP69 010252Z AUTO 00000KT 06/05 A3004 RMK AO1 SLP183 60013
T00560050 51006





000
SAUS45 KMSO 010154
MTRP69
METAR KP69 010152Z AUTO 00000KT 06/05 A3003 RMK AO1 SLP178 P0006
T00610050





000
SAUS45 KMSO 010154
MTRP69
METAR KP69 010152Z AUTO 00000KT 06/05 A3003 RMK AO1 SLP178 P0006
T00610050





000
SAUS45 KMSO 010054
MTRP69
METAR KP69 010052Z AUTO 35003KT 07/05 A3004 RMK AO1 SLP183 P0007
T00670050





000
SAUS45 KMSO 312354
MTRP69
METAR KP69 312352Z AUTO 00000KT 07/06 A3002 RMK AO1 SLP174 P0001
60050 T00720056 10139 20067 51023





000
SAUS45 KMSO 312354
MTRP69
METAR KP69 312352Z AUTO 00000KT 07/06 A3002 RMK AO1 SLP174 P0001
60050 T00720056 10139 20067 51023





000
SAUS45 KMSO 312254
MTRP69
METAR KP69 312252Z AUTO 00000KT 08/06 A3001 RMK AO1 SLP170 P0011
T00780056





000
SAUS45 KMSO 312254
MTRP69
METAR KP69 312252Z AUTO 00000KT 08/06 A3001 RMK AO1 SLP170 P0011
T00780056





000
SAUS45 KMSO 312154
MTRP69
METAR KP69 312152Z AUTO 00000KT 07/06 A3002 RMK AO1 SLP172 P0028
T00720056





000
SAUS45 KMSO 312054
MTRP69
METAR KP69 312052Z AUTO 00000KT 09/06 A2995 RMK AO1 SLP147 P0010
60010 T00890061 53023





000
SAUS45 KMSO 311953
MTRP69
METAR KP69 311952Z AUTO VRB04KT 13/05 A2988 RMK AO1 SLP119 T01280050





000
SAUS45 KMSO 311953
MTRP69
METAR KP69 311952Z AUTO VRB04KT 13/05 A2988 RMK AO1 SLP119 T01280050





000
SAUS45 KMSO 311853
MTRP69
METAR KP69 311852Z AUTO VRB04KT 13/05 A2989 RMK AO1 SLP121 T01280050





000
SAUS45 KMSO 311754
MTRP69
METAR KP69 311752Z AUTO VRB05KT 12/07 A2988 RMK AO1 SLP119 T01170072
10122 20056 55006





000
SAUS45 KMSO 311754
MTRP69
METAR KP69 311752Z AUTO VRB05KT 12/07 A2988 RMK AO1 SLP119 T01170072
10122 20056 55006





000
SAUS45 KMSO 311653
MTRP69
METAR KP69 311652Z AUTO 00000KT 10/06 A2988 RMK AO1 SLP119 T01000061





000
SAUS45 KMSO 311554
MTRP69
METAR KP69 311552Z AUTO 00000KT 09/06 A2988 RMK AO1 SLP122 T00890056





000
SAUS45 KMSO 311554
MTRP69
METAR KP69 311552Z AUTO 00000KT 09/06 A2988 RMK AO1 SLP122 T00890056





000
SAUS45 KMSO 311454
MTRP69
METAR KP69 311452Z AUTO 00000KT 06/05 A2990 RMK AO1 SLP129 T00610050
51019





000
SAUS45 KMSO 311454
MTRP69
METAR KP69 311452Z AUTO 00000KT 06/05 A2990 RMK AO1 SLP129 T00610050
51019





000
SAUS45 KMSO 311353
MTRP69
METAR KP69 311352Z AUTO 00000KT 06/05 A2989 RMK AO1 SLP123 T00610050





000
SAUS45 KMSO 311353
MTRP69
METAR KP69 311352Z AUTO 00000KT 06/05 A2989 RMK AO1 SLP123 T00610050





000
SAUS45 KMSO 311253
MTRP69
METAR KP69 311252Z AUTO 00000KT 07/05 A2986 RMK AO1 SLP110 T00670050





000
SAUS45 KMSO 311253
MTRP69
METAR KP69 311252Z AUTO 00000KT 07/05 A2986 RMK AO1 SLP110 T00670050





000
SAUS45 KMSO 311154
MTRP69
METAR KP69 311152Z AUTO 00000KT 07/05 A2984 RMK AO1 SLP101 T00720050
10089 20072 55004 $





000
SAUS45 KMSO 311154
MTRP69
METAR KP69 311152Z AUTO 00000KT 07/05 A2984 RMK AO1 SLP101 T00720050
10089 20072 55004 $





000
SAUS45 KMSO 311054
MTRP69
METAR KP69 311052Z AUTO 34005KT 07/06 A2983 RMK AO1 SLP093 T00720056
$





000
SAUS45 KMSO 311054
MTRP69
METAR KP69 311052Z AUTO 34005KT 07/06 A2983 RMK AO1 SLP093 T00720056
$





000
SAUS45 KMSO 310954
MTRP69
METAR KP69 310952Z AUTO 33004KT 07/06 A2983 RMK AO1 SLP094 T00720056
$





000
SAUS45 KMSO 310853
MTRP69
METAR KP69 310852Z AUTO 35003KT 07/06 A2985 RMK AO1 SLP105 T00720061
56013 $





000
SAUS45 KMSO 310754
MTRP69
METAR KP69 310752Z AUTO 00000KT 08/06 A2987 RMK AO1 SLP109 T00780061
402220028 $





000
SAUS45 KMSO 310653
MTRP69
METAR KP69 310652Z AUTO 00000KT 08/07 A2988 RMK AO1 SLP116 T00830067
$





000
SAUS45 KMSO 310653
MTRP69
METAR KP69 310652Z AUTO 00000KT 08/07 A2988 RMK AO1 SLP116 T00830067
$





000
SAUS45 KMSO 310553
MTRP69
METAR KP69 310552Z AUTO 01003KT 09/07 A2989 RMK AO1 SLP124 T00890072
10178 20089 58001 $





000
SAUS45 KMSO 310553
MTRP69
METAR KP69 310552Z AUTO 01003KT 09/07 A2989 RMK AO1 SLP124 T00890072
10178 20089 58001 $





000
SAUS45 KMSO 310453
MTRP69
METAR KP69 310452Z AUTO 35003KT 09/08 A2990 RMK AO1 SLP130 T00940078
$





000
SAUS45 KMSO 310354
MTRP69
METAR KP69 310352Z AUTO 34003KT 11/08 A2991 RMK AO1 SLP133 T01110083
$





000
SAUS45 KMSO 310354
MTRP69
METAR KP69 310352Z AUTO 34003KT 11/08 A2991 RMK AO1 SLP133 T01110083
$





000
SAUS45 KMSO 310254
MTRP69
METAR KP69 310252Z AUTO 36003KT 12/09 A2990 RMK AO1 SLP131 T01170089
55001 $





000
SAUS45 KMSO 310153
MTRP69
METAR KP69 310152Z AUTO 01003KT 13/10 A2988 RMK AO1 SLP124 T01330100
$





000
SAUS45 KMSO 310153
MTRP69
METAR KP69 310152Z AUTO 01003KT 13/10 A2988 RMK AO1 SLP124 T01330100
$





000
SAUS45 KMSO 310054
MTRP69
METAR KP69 310052Z AUTO 00000KT 16/10 A2989 RMK AO1 SLP125 T01560100
$





000
SAUS45 KMSO 310054
MTRP69
METAR KP69 310052Z AUTO 00000KT 16/10 A2989 RMK AO1 SLP125 T01560100
$





000
SAUS45 KMSO 302354
MTRP69
METAR KP69 302352Z AUTO 00000KT 18/10 A2990 RMK AO1 SLP124 T01830100
10222 20117 56027 $





000
SAUS45 KMSO 302354
MTRP69
METAR KP69 302352Z AUTO 00000KT 18/10 A2990 RMK AO1 SLP124 T01830100
10222 20117 56027 $





000
SAUS45 KMSO 302254
MTRP69
METAR KP69 302252Z AUTO 00000KT 21/09 A2992 RMK AO1 SLP128 T02110089





000
SAUS45 KMSO 302254
MTRP69
METAR KP69 302252Z AUTO 00000KT 21/09 A2992 RMK AO1 SLP128 T02110089





000
SAUS45 KMSO 302154
MTRP69
METAR KP69 302152Z AUTO 00000KT 22/09 A2995 RMK AO1 SLP137 T02220089





000
SAUS45 KMSO 302154
MTRP69
METAR KP69 302152Z AUTO 00000KT 22/09 A2995 RMK AO1 SLP137 T02220089





000
SAUS45 KMSO 302054
MTRP69
METAR KP69 302052Z AUTO 00000KT 19/07 A2998 RMK AO1 SLP151 T01940067
58049





000
SAUS45 KMSO 302054
MTRP69
METAR KP69 302052Z AUTO 00000KT 19/07 A2998 RMK AO1 SLP151 T01940067
58049





000
SAUS45 KMSO 301953
MTRP69
METAR KP69 301952Z AUTO 36003KT 18/04 A3004 RMK AO1 SLP171 T01830044





000
SAUS45 KMSO 301853
MTRP69
METAR KP69 301852Z AUTO 35003KT 15/04 A3009 RMK AO1 SLP191 T01500044





000
SAUS45 KMSO 301853
MTRP69
METAR KP69 301852Z AUTO 35003KT 15/04 A3009 RMK AO1 SLP191 T01500044





000
SAUS45 KMSO 301754
MTRP69
METAR KP69 301752Z AUTO 36004KT 12/04 A3014 RMK AO1 SLP208 T01220044
10122 20028 58030





000
SAUS45 KMSO 301754
MTRP69
METAR KP69 301752Z AUTO 36004KT 12/04 A3014 RMK AO1 SLP208 T01220044
10122 20028 58030





000
SAUS45 KMSO 301654
MTRP69
METAR KP69 301652Z AUTO 36003KT 08/04 A3018 RMK AO1 SLP225 T00830044





000
SAUS45 KMSO 301654
MTRP69
METAR KP69 301652Z AUTO 36003KT 08/04 A3018 RMK AO1 SLP225 T00830044





000
SAUS45 KMSO 301554
MTRP69
METAR KP69 301552Z AUTO 36003KT 05/03 A3021 RMK AO1 SLP240 T00500028





000
SAUS45 KMSO 301453
MTRP69
METAR KP69 301452Z AUTO 35004KT 03/02 A3023 RMK AO1 SLP247 T00280022
58001





000
SAUS45 KMSO 301354
MTRP69
METAR KP69 301352Z AUTO 00000KT 03/02 A3024 RMK AO1 SLP248 T00330022





000
SAUS45 KMSO 301354
MTRP69
METAR KP69 301352Z AUTO 00000KT 03/02 A3024 RMK AO1 SLP248 T00330022





000
SAUS45 KMSO 301254
MTRP69
METAR KP69 301252Z AUTO 00000KT 03/02 A3023 RMK AO1 SLP244 T00330022





000
SAUS45 KMSO 301254
MTRP69
METAR KP69 301252Z AUTO 00000KT 03/02 A3023 RMK AO1 SLP244 T00330022





000
SAUS45 KMSO 301154
MTRP69
METAR KP69 301152Z AUTO 00000KT 03/03 A3023 RMK AO1 SLP242 T00330028
10067 20033 50004 $





000
SAUS45 KMSO 301154
MTRP69
METAR KP69 301152Z AUTO 00000KT 03/03 A3023 RMK AO1 SLP242 T00330028
10067 20033 50004 $





000
SAUS45 KMSO 301054
MTRP69
METAR KP69 301052Z AUTO 33003KT 04/03 A3023 RMK AO1 SLP240 T00390028
$





000
SAUS45 KMSO 301054
MTRP69
METAR KP69 301052Z AUTO 33003KT 04/03 A3023 RMK AO1 SLP240 T00390028
$





000
SAUS45 KMSO 300954
MTRP69
METAR KP69 300952Z AUTO 00000KT 04/03 A3023 RMK AO1 SLP237 T00440033
$





000
SAUS45 KMSO 300954
MTRP69
METAR KP69 300952Z AUTO 00000KT 04/03 A3023 RMK AO1 SLP237 T00440033
$





000
SAUS45 KMSO 300853
MTRP69
METAR KP69 300852Z AUTO 35003KT 05/04 A3022 RMK AO1 SLP233 T00500039
51002 $





000
SAUS45 KMSO 300754
MTRP69
METAR KP69 300752Z AUTO 36003KT 06/04 A3022 RMK AO1 SLP236 T00560044
401890044 $





000
SAUS45 KMSO 300754
MTRP69
METAR KP69 300752Z AUTO 36003KT 06/04 A3022 RMK AO1 SLP236 T00560044
401890044 $





000
SAUS45 KMSO 300654
MTRP69
METAR KP69 300652Z AUTO 00000KT 06/04 A3021 RMK AO1 SLP234 T00610044
$





000
SAUS45 KMSO 300654
MTRP69
METAR KP69 300652Z AUTO 00000KT 06/04 A3021 RMK AO1 SLP234 T00610044
$





000
SAUS45 KMSO 300554
MTRP69
METAR KP69 300552Z AUTO 34004KT 07/05 A3021 RMK AO1 SLP235 T00670050
10139 20067 53016 $





000
SAUS45 KMSO 300554
MTRP69
METAR KP69 300552Z AUTO 34004KT 07/05 A3021 RMK AO1 SLP235 T00670050
10139 20067 53016 $





000
SAUS45 KMSO 300454
MTRP69
METAR KP69 300452Z AUTO 35004KT 07/06 A3020 RMK AO1 SLP232 T00720056
$





000
SAUS45 KMSO 300454
MTRP69
METAR KP69 300452Z AUTO 35004KT 07/06 A3020 RMK AO1 SLP232 T00720056
$





000
SAUS45 KMSO 300354
MTRP69
METAR KP69 300352Z AUTO 34004KT 08/06 A3018 RMK AO1 SLP225 T00780061
$





000
SAUS45 KMSO 300354
MTRP69
METAR KP69 300352Z AUTO 34004KT 08/06 A3018 RMK AO1 SLP225 T00780061
$





000
SAUS45 KMSO 300254
MTRP69
METAR KP69 300252Z AUTO 36004KT 09/07 A3016 RMK AO1 SLP222 T00890067
53006 $





000
SAUS45 KMSO 300254
MTRP69
METAR KP69 300252Z AUTO 36004KT 09/07 A3016 RMK AO1 SLP222 T00890067
53006 $





000
SAUS45 KMSO 300153
MTRP69
METAR KP69 300152Z AUTO 34003KT 10/07 A3014 RMK AO1 SLP214 T01000072
$





000
SAUS45 KMSO 300053
MTRP69
METAR KP69 300052Z AUTO VRB03KT 13/06 A3014 RMK AO1 SLP212 T01280061
$





000
SAUS45 KMSO 300053
MTRP69
METAR KP69 300052Z AUTO VRB03KT 13/06 A3014 RMK AO1 SLP212 T01280061
$





000
SAUS45 KMSO 292354
MTRP69
METAR KP69 292352Z AUTO 36003KT 14/07 A3014 RMK AO1 SLP211 T01390067
10189 20117 56029 $





000
SAUS45 KMSO 292354
MTRP69
METAR KP69 292352Z AUTO 36003KT 14/07 A3014 RMK AO1 SLP211 T01390067
10189 20117 56029 $





000
SAUS45 KMSO 292254
MTRP69
METAR KP69 292252Z AUTO 00000KT 17/06 A3016 RMK AO1 SLP213 T01720061
$





000
SAUS45 KMSO 292254
MTRP69
METAR KP69 292252Z AUTO 00000KT 17/06 A3016 RMK AO1 SLP213 T01720061
$





000
SAUS45 KMSO 292153
MTRP69
METAR KP69 292152Z AUTO 00000KT 17/04 A3019 RMK AO1 SLP223 T01670044
$





    US Dept of Commerce
    National Oceanic and Atmospheric Administration
    National Weather Service
    1325 East West Highway
    Silver Spring, MD 20910
    Page Author: NWS Internet Services Team
Disclaimer
Information Quality
Credits
Glossary
Privacy Policy
Freedom of Information Act (FOIA)
About Us
Career Opportunities